Time;durP1;ratioP1;P1;durP2;ratioP2;P2;SDS_P1;SDS_P2;PMS_P1;PMS_P2;Temp;Humidity;BMP_temperature;BMP_pressure;BME280_temperature;BME280_humidity;BME280_pressure;Samples;Min_cycle;Max_cycle;Signal;HPM_P1;HPM_P2
2021/03/21 00:01:41;;;;;;;9.15;5.03;;;6.70;92.70;;;;;;4880096;29;20563;-83
2021/03/21 00:04:08;;;;;;;11.75;4.88;;;6.70;92.80;;;;;;4881541;29;20132;-84
2021/03/21 00:06:34;;;;;;;10.23;5.15;;;6.70;92.80;;;;;;4881341;29;20053;-85
2021/03/21 00:09:07;;;;;;;8.35;4.93;;;6.70;92.70;;;;;;4880502;29;20053;-86
2021/03/21 00:11:33;;;;;;;9.38;4.88;;;6.80;92.80;;;;;;4880775;29;20055;-86
2021/03/21 00:14:14;;;;;;;9.90;5.72;;;6.70;92.70;;;;;;4880217;29;20125;-86
2021/03/21 00:16:54;;;;;;;11.33;5.87;;;6.80;92.70;;;;;;4881275;29;20057;-86
2021/03/21 00:19:38;;;;;;;9.45;5.47;;;6.70;92.70;;;;;;4881065;29;20057;-87
2021/03/21 00:22:04;;;;;;;16.02;6.78;;;6.70;92.70;;;;;;4880405;29;20430;-87
2021/03/21 00:24:36;;;;;;;12.50;5.93;;;6.70;92.70;;;;;;4880429;29;20120;-87
2021/03/21 00:27:04;;;;;;;12.95;6.80;;;6.70;92.80;;;;;;4881177;29;20071;-84
2021/03/21 00:29:30;;;;;;;15.48;7.15;;;6.80;92.70;;;;;;4879685;29;20053;-84
2021/03/21 00:31:56;;;;;;;14.65;6.18;;;6.80;92.80;;;;;;4880446;29;20049;-83
2021/03/21 00:34:34;;;;;;;14.15;7.22;;;6.80;92.70;;;;;;4880368;29;20405;-84
2021/03/21 00:37:17;;;;;;;15.55;6.35;;;6.80;92.80;;;;;;4879969;29;20053;-84
2021/03/21 00:39:43;;;;;;;15.27;6.30;;;6.70;92.80;;;;;;4880798;29;20065;-84
2021/03/21 00:42:15;;;;;;;14.52;5.53;;;6.70;92.80;;;;;;4879996;29;20498;-84
2021/03/21 00:44:42;;;;;;;14.18;6.40;;;6.70;92.80;;;;;;4880407;29;20502;-84
2021/03/21 00:47:07;;;;;;;15.35;5.47;;;6.80;92.80;;;;;;4880658;29;20109;-85
2021/03/21 00:49:35;;;;;;;11.88;5.82;;;6.80;92.90;;;;;;4879508;29;20120;-86
2021/03/21 00:52:01;;;;;;;13.45;5.90;;;6.80;92.90;;;;;;4879773;29;20498;-84
2021/03/21 00:54:27;;;;;;;12.02;5.57;;;6.80;92.90;;;;;;4880348;29;20049;-85
2021/03/21 00:56:53;;;;;;;12.77;5.35;;;6.80;92.90;;;;;;4879250;29;20049;-85
2021/03/21 00:59:19;;;;;;;14.13;5.53;;;6.80;92.90;;;;;;4879371;29;20053;-85
2021/03/21 01:01:44;;;;;;;13.18;5.93;;;6.80;92.90;;;;;;4863241;29;20487;-85
2021/03/21 01:04:11;;;;;;;12.10;5.90;;;6.80;92.90;;;;;;4879062;29;20387;-85
2021/03/21 01:06:42;;;;;;;13.93;6.30;;;6.80;92.90;;;;;;4880360;29;20049;-85
2021/03/21 01:09:12;;;;;;;16.02;6.70;;;6.80;92.90;;;;;;4879283;29;20057;-86
2021/03/21 01:11:40;;;;;;;16.83;6.68;;;6.80;92.90;;;;;;4878622;29;20108;-86
2021/03/21 01:14:07;;;;;;;17.48;7.13;;;6.80;92.90;;;;;;4879942;29;20049;-87
2021/03/21 01:16:39;;;;;;;21.83;7.80;;;6.80;92.90;;;;;;4879580;29;20045;-88
2021/03/21 01:19:17;;;;;;;18.58;8.07;;;6.80;92.90;;;;;;4879082;29;20069;-87
2021/03/21 01:22:00;;;;;;;19.48;7.68;;;6.80;92.90;;;;;;4880197;29;20114;-88
2021/03/21 01:24:29;;;;;;;18.88;8.35;;;6.80;92.90;;;;;;4877828;29;20173;-88
2021/03/21 01:27:04;;;;;;;16.38;8.38;;;6.90;92.90;;;;;;4880093;29;20056;-88
2021/03/21 01:29:38;;;;;;;15.98;7.93;;;6.80;92.90;;;;;;4878933;29;20063;-87
2021/03/21 01:32:08;;;;;;;16.77;8.20;;;6.80;92.90;;;;;;4871967;29;20061;-88
2021/03/21 01:34:35;;;;;;;19.13;7.78;;;6.80;92.90;;;;;;4879771;29;20426;-87
2021/03/21 01:37:07;;;;;;;21.98;8.65;;;6.80;92.90;;;;;;4879595;29;20113;-88
2021/03/21 01:39:32;;;;;;;21.98;9.30;;;6.80;92.80;;;;;;4880352;29;20064;-88
2021/03/21 01:42:15;;;;;;;20.90;9.05;;;6.80;92.90;;;;;;4879852;29;20057;-87
2021/03/21 01:44:43;;;;;;;16.73;8.55;;;6.90;93.00;;;;;;4879645;29;20097;-88
2021/03/21 01:47:52;;;;;;;21.13;8.80;;;6.80;93.00;;;;;;4878853;29;20097;-87
2021/03/21 01:50:43;;;;;;;20.27;9.20;;;6.80;93.00;;;;;;4879591;29;20140;-87
2021/03/21 01:53:24;;;;;;;17.52;8.45;;;6.80;93.00;;;;;;4878815;29;20079;-88
2021/03/21 02:02:54;;;;;;;16.90;8.00;;;6.80;93.00;;;;;;5135431;23;20424;-86
2021/03/21 02:05:20;;;;;;;17.35;7.90;;;6.80;93.00;;;;;;4916849;29;20094;-87
2021/03/21 02:08:20;;;;;;;14.13;7.22;;;6.80;93.00;;;;;;4916434;29;20059;-87
2021/03/21 02:10:46;;;;;;;13.73;6.15;;;6.80;93.10;;;;;;4917721;29;20063;-92
2021/03/21 02:13:24;;;;;;;18.13;6.22;;;6.80;93.00;;;;;;4917170;29;20048;-94
2021/03/21 02:16:03;;;;;;;13.07;5.47;;;6.80;93.10;;;;;;4917512;29;20056;-92
2021/03/21 02:19:09;;;;;;;14.25;5.75;;;6.80;93.00;;;;;;4916894;29;20066;-92
2021/03/21 02:21:43;;;;;;;16.27;5.72;;;6.80;93.00;;;;;;4899933;29;20437;-88
2021/03/21 02:24:47;;;;;;;15.10;5.97;;;6.80;93.00;;;;;;4916374;29;20078;-87
2021/03/21 02:27:39;;;;;;;17.50;6.20;;;6.80;93.00;;;;;;4916338;29;20084;-87
2021/03/21 02:30:13;;;;;;;13.30;5.80;;;6.70;92.90;;;;;;4916682;29;20067;-87
2021/03/21 02:32:48;;;;;;;12.40;5.68;;;6.80;92.90;;;;;;4916708;29;20432;-87
2021/03/21 02:35:28;;;;;;;15.07;5.43;;;6.70;92.80;;;;;;4915926;29;20060;-89
2021/03/21 02:37:58;;;;;;;12.15;5.68;;;6.70;92.80;;;;;;4916396;29;20428;-85
2021/03/21 02:40:36;;;;;;;18.30;6.13;;;6.70;92.80;;;;;;4916400;29;20135;-86
2021/03/21 02:43:10;;;;;;;16.23;6.05;;;6.70;92.80;;;;;;4915815;29;20131;-86
2021/03/21 02:45:39;;;;;;;17.08;5.80;;;6.70;92.80;;;;;;4916832;29;20083;-86
2021/03/21 02:48:32;;;;;;;14.23;5.20;;;6.70;92.70;;;;;;4916440;29;20131;-88
2021/03/21 02:51:09;;;;;;;14.65;5.03;;;6.70;92.70;;;;;;4910025;29;20056;-88
2021/03/21 02:53:48;;;;;;;15.82;5.22;;;6.70;92.70;;;;;;4916950;29;20048;-86
2021/03/21 02:56:24;;;;;;;14.98;5.00;;;6.70;92.70;;;;;;4915244;29;20400;-86
2021/03/21 02:58:58;;;;;;;19.88;5.47;;;6.70;92.60;;;;;;4916134;29;20505;-86
2021/03/21 03:01:29;;;;;;;13.50;5.15;;;6.70;92.60;;;;;;4915864;29;20056;-85
2021/03/21 03:04:02;;;;;;;14.07;5.20;;;6.70;92.60;;;;;;4915783;29;20052;-86
2021/03/21 03:06:39;;;;;;;14.38;5.13;;;6.70;92.60;;;;;;4915691;29;20579;-86
2021/03/21 03:09:23;;;;;;;16.33;5.10;;;6.70;92.60;;;;;;4915922;29;20052;-87
2021/03/21 03:11:56;;;;;;;13.20;4.95;;;6.70;92.60;;;;;;4915746;29;20079;-85
2021/03/21 03:14:34;;;;;;;13.15;5.07;;;6.70;92.60;;;;;;4916026;29;20059;-85
2021/03/21 03:17:28;;;;;;;19.17;5.05;;;6.70;92.60;;;;;;4915718;29;20052;-86
2021/03/21 03:20:11;;;;;;;11.85;4.82;;;6.70;92.50;;;;;;4916452;29;20059;-85
2021/03/21 03:22:52;;;;;;;14.70;4.88;;;6.70;92.60;;;;;;4915789;29;20063;-85
2021/03/21 03:25:28;;;;;;;16.60;5.05;;;6.70;92.60;;;;;;4914940;29;20064;-85
2021/03/21 03:28:15;;;;;;;18.63;4.90;;;6.70;92.50;;;;;;4915982;29;20513;-86
2021/03/21 03:31:23;;;;;;;19.90;4.90;;;6.70;92.50;;;;;;4915821;29;20052;-87
2021/03/21 03:33:49;;;;;;;13.65;4.38;;;6.70;92.50;;;;;;4906572;29;20048;-85
2021/03/21 03:36:17;;;;;;;13.52;4.50;;;6.70;92.50;;;;;;4919336;29;20083;-85
2021/03/21 03:38:45;;;;;;;13.60;4.32;;;6.70;92.50;;;;;;4918520;29;20056;-85
2021/03/21 03:41:42;;;;;;;19.27;4.18;;;6.70;92.50;;;;;;4919279;29;20068;-84
2021/03/21 03:44:33;;;;;;;16.77;4.32;;;6.70;92.50;;;;;;4903950;29;20055;-85
2021/03/21 03:47:13;;;;;;;18.38;3.63;;;6.70;92.60;;;;;;4918937;29;20048;-89
2021/03/21 03:50:12;;;;;;;15.75;3.92;;;6.70;92.50;;;;;;4919584;29;20056;-90
2021/03/21 03:53:20;;;;;;;15.90;2.92;;;6.70;92.50;;;;;;4918619;29;20064;-90
2021/03/21 03:56:08;;;;;;;14.60;2.80;;;6.70;92.50;;;;;;4909188;29;20044;-88
2021/03/21 03:58:56;;;;;;;16.20;3.40;;;6.60;92.50;;;;;;4919189;29;20506;-90
2021/03/21 04:01:37;;;;;;;11.15;3.20;;;6.70;92.50;;;;;;4913831;29;20512;-89
2021/03/21 04:04:15;;;;;;;13.20;3.30;;;6.70;92.50;;;;;;4883913;29;20052;-89
2021/03/21 04:07:03;;;;;;;15.02;2.80;;;6.70;92.40;;;;;;4899945;29;20049;-89
2021/03/21 04:09:36;;;;;;;16.00;3.63;;;6.70;92.50;;;;;;4899672;29;20451;-85
2021/03/21 04:12:11;;;;;;;16.65;3.38;;;6.70;92.50;;;;;;4900304;29;20052;-89
2021/03/21 04:14:52;;;;;;;22.88;3.67;;;6.70;92.50;;;;;;4899844;29;20405;-87
2021/03/21 04:17:31;;;;;;;15.07;2.75;;;6.70;92.50;;;;;;4899602;29;20044;-89
2021/03/21 04:20:04;;;;;;;11.05;2.80;;;6.70;92.40;;;;;;4899641;29;20057;-88
2021/03/21 04:22:32;;;;;;;;;;;6.70;92.40;;;;;;4899783;29;20504;-87
2021/03/21 04:25:12;;;;;;;20.50;3.03;;;6.60;92.40;;;;;;4899657;29;19928;-87
2021/03/21 04:28:07;;;;;;;15.18;2.70;;;6.60;92.40;;;;;;4899540;29;20116;-87
2021/03/21 04:30:47;;;;;;;20.15;2.92;;;6.60;92.40;;;;;;4899441;29;20512;-90
2021/03/21 04:33:20;;;;;;;15.30;2.83;;;6.60;92.30;;;;;;4899766;29;20063;-89
2021/03/21 04:36:10;;;;;;;17.67;2.90;;;6.60;92.30;;;;;;4899360;29;20048;-90
2021/03/21 04:39:00;;;;;;;19.02;2.65;;;6.60;92.30;;;;;;4899914;29;20085;-90
2021/03/21 04:41:31;;;;;;;16.08;2.10;;;6.60;92.30;;;;;;4898817;29;20053;-89
2021/03/21 04:44:09;;;;;;;19.55;2.45;;;6.60;92.30;;;;;;4899681;29;20049;-89
2021/03/21 04:46:49;;;;;;;17.20;2.60;;;6.60;92.20;;;;;;4898546;29;20056;-89
2021/03/21 04:49:25;;;;;;;11.63;2.28;;;6.60;92.20;;;;;;4898785;29;20071;-89
2021/03/21 04:52:18;;;;;;;15.80;2.65;;;6.60;92.10;;;;;;4899693;29;20064;-89
2021/03/21 04:54:49;;;;;;;16.23;2.83;;;6.50;92.10;;;;;;4883024;29;20048;-90
2021/03/21 04:57:35;;;;;;;14.65;2.13;;;6.50;92.10;;;;;;4898202;29;20398;-90
2021/03/21 05:00:07;;;;;;;15.43;2.88;;;6.50;92.10;;;;;;4899080;29;20505;-88
2021/03/21 05:02:53;;;;;;;17.67;2.50;;;6.50;92.10;;;;;;4913320;29;20056;-90
2021/03/21 05:05:26;;;;;;;16.55;2.53;;;6.50;92.00;;;;;;4917982;29;20056;-90
2021/03/21 05:08:18;;;;;;;13.33;2.70;;;6.50;92.00;;;;;;4917833;29;20051;-87
2021/03/21 05:10:49;;;;;;;15.20;2.75;;;6.50;91.90;;;;;;4917395;29;20446;-90
2021/03/21 05:13:56;;;;;;;13.55;2.45;;;6.50;91.80;;;;;;4917747;29;20052;-89
2021/03/21 05:17:01;;;;;;;13.23;2.97;;;6.50;91.80;;;;;;4840687;29;20050;-90
2021/03/21 05:19:53;;;;;;;20.97;2.73;;;6.50;91.90;;;;;;4918195;29;20131;-90
2021/03/21 05:23:06;;;;;;;16.45;2.40;;;6.50;91.90;;;;;;4917455;29;20098;-90
2021/03/21 05:25:48;;;;;;;15.05;2.05;;;6.50;91.80;;;;;;4859179;29;20048;-90
2021/03/21 05:28:35;;;;;;;20.52;2.75;;;6.50;91.80;;;;;;4917957;29;20052;-90
2021/03/21 05:31:04;;;;;;;16.40;1.90;;;6.50;91.70;;;;;;4917745;29;20055;-90
2021/03/21 05:33:32;;;;;;;15.40;2.42;;;6.40;91.50;;;;;;4917810;29;20507;-84
2021/03/21 05:36:13;;;;;;;16.63;2.38;;;6.50;91.60;;;;;;4917405;29;20111;-85
2021/03/21 05:38:59;;;;;;;15.95;2.53;;;6.50;91.60;;;;;;4916693;29;20060;-90
2021/03/21 05:41:55;;;;;;;14.35;2.08;;;6.40;91.40;;;;;;4916791;29;20511;-89
2021/03/21 05:44:41;;;;;;;17.75;2.22;;;6.40;91.30;;;;;;4916965;29;20052;-90
2021/03/21 05:47:27;;;;;;;14.77;2.28;;;6.40;91.20;;;;;;4917582;29;20090;-88
2021/03/21 05:50:24;;;;;;;18.33;2.30;;;6.40;91.20;;;;;;4909529;29;20096;-90
2021/03/21 05:53:04;;;;;;;18.02;2.30;;;6.40;91.30;;;;;;4916583;29;20572;-91
2021/03/21 05:55:41;;;;;;;19.25;3.00;;;6.40;91.30;;;;;;4913832;29;20055;-91
2021/03/21 05:58:49;;;;;;;19.25;2.47;;;6.50;91.30;;;;;;4917085;29;20051;-89
2021/03/21 06:02:14;;;;;;;21.63;2.90;;;6.40;91.20;;;;;;4906626;29;20072;-90
2021/03/21 06:05:10;;;;;;;21.23;2.88;;;6.40;91.10;;;;;;4840747;29;20534;-89
2021/03/21 06:08:08;;;;;;;22.35;3.30;;;6.40;91.10;;;;;;4840234;29;20434;-88
2021/03/21 06:10:49;;;;;;;20.55;3.03;;;6.40;90.90;;;;;;4840313;29;20495;-87
2021/03/21 06:13:36;;;;;;;17.00;2.75;;;6.40;91.00;;;;;;4890387;29;20052;-90
2021/03/21 06:16:29;;;;;;;28.08;3.90;;;6.40;91.00;;;;;;4916992;29;20122;-85
2021/03/21 06:19:26;;;;;;;19.90;3.38;;;6.40;90.80;;;;;;4917307;29;20067;-89
2021/03/21 06:22:18;;;;;;;30.25;3.78;;;6.40;90.80;;;;;;4914988;29;20056;-88
2021/03/21 06:24:51;;;;;;;24.67;3.60;;;6.40;90.60;;;;;;4916998;29;20052;-90
2021/03/21 06:27:36;;;;;;;25.80;3.95;;;6.40;90.60;;;;;;4916401;29;20055;-89
2021/03/21 06:30:41;;;;;;;23.77;3.83;;;6.40;90.60;;;;;;4916986;29;20048;-88
2021/03/21 06:33:25;;;;;;;28.95;4.32;;;6.40;90.50;;;;;;4897833;29;20056;-90
2021/03/21 06:36:23;;;;;;;25.42;3.92;;;6.40;90.50;;;;;;4909207;29;20052;-90
2021/03/21 06:38:51;;;;;;;29.83;4.28;;;6.40;90.60;;;;;;4905399;29;20079;-87
2021/03/21 06:41:39;;;;;;;23.98;3.78;;;6.40;90.50;;;;;;4898611;29;20056;-89
2021/03/21 06:44:42;;;;;;;35.28;4.82;;;6.40;90.40;;;;;;4901868;29;20420;-92
2021/03/21 06:47:28;;;;;;;24.58;4.00;;;6.30;90.20;;;;;;4907368;29;20130;-87
2021/03/21 06:50:29;;;;;;;27.83;4.32;;;6.30;90.30;;;;;;4931293;29;20052;-89
2021/03/21 06:53:13;;;;;;;33.67;4.88;;;6.30;90.00;;;;;;4915194;29;20449;-86
2021/03/21 06:55:55;;;;;;;30.33;4.38;;;6.30;89.50;;;;;;4911168;23;20095;-86
2021/03/21 06:59:15;;;;;;;29.80;5.00;;;6.30;89.00;;;;;;4886707;29;20056;-85
2021/03/21 07:02:00;;;;;;;37.50;5.68;;;6.30;87.20;;;;;;4878327;29;20506;-87
2021/03/21 07:05:00;;;;;;;30.83;4.78;;;6.20;87.90;;;;;;5126011;23;20778;-88
2021/03/21 07:08:04;;;;;;;36.97;5.15;;;6.20;88.20;;;;;;4897326;29;20132;-88
2021/03/21 07:11:26;;;;;;;38.65;5.40;;;6.20;87.80;;;;;;4898941;29;20147;-82
2021/03/21 07:14:32;;;;;;;37.10;5.22;;;6.20;88.10;;;;;;4896384;29;20632;-85
2021/03/21 07:17:29;;;;;;;24.98;4.28;;;6.20;88.10;;;;;;4898634;29;20053;-85
2021/03/21 07:20:33;;;;;;;34.00;4.78;;;6.30;88.80;;;;;;4898433;29;20076;-85
2021/03/21 07:23:51;;;;;;;30.70;4.53;;;6.20;88.70;;;;;;4899903;29;20076;-87
2021/03/21 07:26:19;;;;;;;35.33;5.03;;;6.20;88.50;;;;;;4893615;29;20450;-88
2021/03/21 07:29:04;;;;;;;32.88;4.95;;;6.30;89.00;;;;;;4881325;29;20413;-86
2021/03/21 07:31:55;;;;;;;39.95;6.13;;;6.20;88.70;;;;;;4881264;29;20093;-87
2021/03/21 07:34:51;;;;;;;30.88;4.53;;;6.30;88.10;;;;;;4881966;29;20076;-86
2021/03/21 07:37:27;;;;;;;39.08;4.95;;;6.30;87.70;;;;;;4880604;29;20495;-85
2021/03/21 07:40:20;;;;;;;38.70;5.85;;;6.30;87.90;;;;;;4881088;29;20061;-86
2021/03/21 07:42:48;;;;;;;29.70;6.00;;;6.30;88.00;;;;;;4882050;29;20052;-87
2021/03/21 07:45:55;;;;;;;30.88;5.10;;;6.30;88.00;;;;;;4881155;29;20060;-87
2021/03/21 07:48:45;;;;;;;36.15;5.72;;;6.30;87.90;;;;;;4849945;29;20439;-86
2021/03/21 07:51:46;;;;;;;35.03;5.18;;;6.30;87.90;;;;;;4880965;29;20049;-87
2021/03/21 07:54:29;;;;;;;33.45;5.13;;;6.30;87.80;;;;;;4851028;29;20105;-87
2021/03/21 07:57:08;;;;;;;32.67;5.13;;;6.30;88.10;;;;;;4881888;29;20049;-87
2021/03/21 07:59:35;;;;;;;46.53;5.55;;;6.30;87.40;;;;;;4880672;29;20057;-86
2021/03/21 08:02:01;;;;;;;35.03;5.75;;;6.40;86.90;;;;;;4881437;29;20088;-86
2021/03/21 08:04:35;;;;;;;41.63;5.75;;;6.40;87.10;;;;;;4881464;29;20048;-86
2021/03/21 08:07:16;;;;;;;37.30;5.68;;;6.30;86.90;;;;;;4880693;29;20068;-87
2021/03/21 08:09:43;;;;;;;33.78;5.85;;;6.40;87.30;;;;;;4881625;29;20044;-86
2021/03/21 08:12:41;;;;;;;34.25;5.53;;;6.40;87.40;;;;;;4880588;29;20049;-86
2021/03/21 08:15:17;;;;;;;41.03;6.30;;;6.40;87.00;;;;;;4864657;29;20132;-87
2021/03/21 08:18:08;;;;;;;36.55;5.40;;;6.40;86.70;;;;;;4881435;29;20131;-86
2021/03/21 08:20:47;;;;;;;33.67;5.13;;;6.50;86.50;;;;;;4855710;29;20061;-86
2021/03/21 08:23:19;;;;;;;35.72;5.90;;;6.50;86.90;;;;;;4880864;29;20057;-87
2021/03/21 08:25:49;;;;;;;37.67;6.07;;;6.50;86.10;;;;;;4881056;29;20056;-87
2021/03/21 08:31:28;;;;;;;41.03;6.00;;;6.60;86.20;;;;;;4868306;29;20055;-86
2021/03/21 08:34:29;;;;;;;34.75;5.60;;;6.50;85.30;;;;;;4880047;29;20061;-87
2021/03/21 08:36:56;;;;;;;37.85;5.63;;;6.50;84.90;;;;;;4881004;29;20053;-86
2021/03/21 08:39:39;;;;;;;39.00;6.05;;;6.60;85.10;;;;;;4880427;29;20376;-86
2021/03/21 08:42:05;;;;;;;40.20;5.78;;;6.60;84.80;;;;;;4880106;29;20495;-86
2021/03/21 08:44:42;;;;;;;41.65;5.72;;;6.60;85.00;;;;;;4880665;29;20383;-86
2021/03/21 08:47:26;;;;;;;36.10;5.43;;;6.70;84.70;;;;;;4890573;29;20045;-86
2021/03/21 08:50:00;;;;;;;37.42;5.55;;;6.70;84.70;;;;;;4891030;29;20048;-87
2021/03/21 08:52:52;;;;;;;36.20;5.43;;;6.70;84.40;;;;;;4891688;29;20044;-87
2021/03/21 08:55:41;;;;;;;40.17;6.03;;;6.70;82.70;;;;;;4856878;29;20133;-87
2021/03/21 08:58:28;;;;;;;34.53;5.30;;;6.70;83.40;;;;;;4896268;29;20052;-88
2021/03/21 09:00:54;;;;;;;;;;;6.70;83.50;;;;;;4897280;29;20104;-86
2021/03/21 09:03:40;;;;;;;42.65;5.63;;;6.70;83.20;;;;;;4898109;29;20010;-88
2021/03/21 09:06:46;;;;;;;34.17;5.07;;;6.70;83.50;;;;;;4898864;29;20088;-88
2021/03/21 09:09:52;;;;;;;32.72;5.20;;;6.70;83.90;;;;;;4897671;29;20060;-87
2021/03/21 09:12:24;;;;;;;35.97;6.10;;;6.70;83.70;;;;;;4897756;29;20053;-88
2021/03/21 09:15:16;;;;;;;38.45;6.00;;;6.70;83.50;;;;;;4899077;29;20088;-86
2021/03/21 09:29:20;;;;;;;40.95;6.25;;;6.80;83.00;;;;;;4823040;29;20102;-86
2021/03/21 09:31:52;;;;;;;32.10;5.18;;;6.80;82.90;;;;;;4889829;29;20056;-85
2021/03/21 09:34:23;;;;;;;33.80;5.75;;;6.90;82.90;;;;;;4898176;29;20516;-86
2021/03/21 09:37:11;;;;;;;43.13;6.05;;;6.90;82.90;;;;;;4898265;29;20045;-87
2021/03/21 09:40:27;;;;;;;35.10;5.82;;;6.90;82.90;;;;;;4896761;29;20131;-84
2021/03/21 09:42:52;;;;;;;37.95;5.55;;;6.90;81.80;;;;;;4897475;29;20451;-86
2021/03/21 09:45:19;;;;;;;38.10;5.95;;;6.90;82.60;;;;;;4897794;29;20056;-87
2021/03/21 09:48:13;;;;;;;40.03;5.93;;;6.90;82.80;;;;;;4895936;29;20119;-85
2021/03/21 09:51:33;;;;;;;35.33;6.28;;;6.90;82.50;;;;;;4894287;23;20056;-87
2021/03/21 09:55:10;;;;;;;36.40;5.25;;;6.90;82.40;;;;;;4822046;29;20461;-85
2021/03/21 09:58:00;;;;;;;31.15;5.20;;;7.00;81.10;;;;;;4815843;29;20053;-86
2021/03/21 10:00:32;;;;;;;32.40;5.10;;;7.00;82.00;;;;;;4871876;29;20463;-84
2021/03/21 10:03:20;;;;;;;32.03;5.10;;;7.00;82.20;;;;;;4878652;29;20066;-87
2021/03/21 10:06:30;;;;;;;35.33;5.78;;;7.00;82.20;;;;;;4863331;29;20045;-85
2021/03/21 10:09:32;;;;;;;30.85;5.32;;;7.00;81.70;;;;;;4885843;29;20053;-86
2021/03/21 10:12:18;;;;;;;38.15;5.80;;;7.10;81.40;;;;;;4886091;29;20049;-86
2021/03/21 10:14:59;;;;;;;42.10;6.47;;;7.00;81.40;;;;;;4881578;29;20052;-86
2021/03/21 10:17:28;;;;;;;43.85;6.40;;;7.00;81.30;;;;;;4902543;23;20059;-82
2021/03/21 10:19:56;;;;;;;37.70;5.43;;;7.00;81.10;;;;;;4915441;29;20056;-82
2021/03/21 10:22:25;;;;;;;42.75;6.28;;;7.10;80.80;;;;;;4904015;29;20501;-84
2021/03/21 10:24:53;;;;;;;37.38;6.20;;;7.10;81.00;;;;;;4917070;29;20493;-83
2021/03/21 10:27:24;;;;;;;54.55;6.72;;;7.10;80.90;;;;;;4915422;29;20059;-86
2021/03/21 10:30:18;;;;;;;44.78;6.43;;;7.00;80.80;;;;;;4915484;29;20056;-85
2021/03/21 10:38:55;;;;;;;43.53;6.35;;;7.10;81.70;;;;;;5087856;27;20383;-87
2021/03/21 10:42:02;;;;;;;34.13;5.00;;;7.10;80.80;;;;;;5087364;28;20055;-86
2021/03/21 10:44:49;;;;;;;34.55;5.95;;;7.10;81.00;;;;;;5089493;28;20416;-86
2021/03/21 10:47:30;;;;;;;35.65;5.82;;;7.10;79.50;;;;;;5089346;28;20140;-86
2021/03/21 10:50:19;;;;;;;33.78;5.43;;;7.10;79.40;;;;;;5089988;28;20090;-85
2021/03/21 10:53:23;;;;;;;30.83;5.78;;;7.10;79.60;;;;;;5090352;28;20048;-86
2021/03/21 10:56:27;;;;;;;35.40;6.22;;;7.10;79.20;;;;;;5089432;28;20052;-85
2021/03/21 10:59:24;;;;;;;34.10;5.28;;;7.10;79.50;;;;;;5090414;28;20055;-86
2021/03/21 11:02:26;;;;;;;38.33;6.30;;;7.10;79.60;;;;;;5089082;28;20051;-85
2021/03/21 11:05:00;;;;;;;39.20;6.45;;;7.10;79.20;;;;;;5089844;28;20053;-85
2021/03/21 11:07:27;;;;;;;37.58;6.25;;;7.10;79.70;;;;;;5089967;28;20112;-85
2021/03/21 11:09:56;;;;;;;38.83;6.20;;;7.10;79.80;;;;;;5089026;28;20044;-85
2021/03/21 11:12:50;;;;;;;36.05;6.03;;;7.10;80.70;;;;;;5089587;28;20044;-86
2021/03/21 11:15:18;;;;;;;38.25;5.85;;;7.20;79.20;;;;;;5088825;28;20086;-84
2021/03/21 11:17:46;;;;;;;40.25;6.15;;;7.20;79.40;;;;;;5089817;28;20055;-85
2021/03/21 11:20:27;;;;;;;33.90;5.50;;;7.20;79.90;;;;;;5089585;28;20067;-85
2021/03/21 11:23:14;;;;;;;34.00;5.90;;;7.20;78.80;;;;;;5088921;28;20044;-86
2021/03/21 11:25:42;;;;;;;40.03;6.25;;;7.20;79.30;;;;;;5090181;28;20438;-85
2021/03/21 11:28:35;;;;;;;34.58;5.68;;;7.20;80.10;;;;;;5089653;28;20072;-85
2021/03/21 11:31:28;;;;;;;40.75;6.45;;;7.30;79.20;;;;;;5070147;28;20127;-85
2021/03/21 11:34:06;;;;;;;33.20;5.70;;;7.30;79.10;;;;;;5089629;28;20193;-85
2021/03/21 11:37:48;;;;;;;37.00;6.25;;;7.30;79.20;;;;;;5088168;28;20045;-86
2021/03/21 11:40:20;;;;;;;35.85;5.88;;;7.30;78.60;;;;;;5089344;28;20117;-85
2021/03/21 11:43:19;;;;;;;29.73;5.65;;;7.30;79.10;;;;;;5300735;22;20061;-86
2021/03/21 11:45:52;;;;;;;41.03;6.05;;;7.30;79.00;;;;;;5048703;28;20049;-85
2021/03/21 11:48:21;;;;;;;32.42;5.40;;;7.40;79.20;;;;;;5044197;28;20077;-87
2021/03/21 11:51:11;;;;;;;;;;;;;;;;;;;;;
2021/03/21 11:53:49;;;;;;;29.48;5.32;;;7.40;78.50;;;;;;5024045;28;20053;-85
2021/03/21 11:56:40;;;;;;;34.08;5.00;;;7.40;78.20;;;;;;5013828;23;20055;-89
2021/03/21 11:59:51;;;;;;;31.42;5.10;;;7.40;77.70;;;;;;4964343;28;20168;-89
2021/03/21 12:02:44;;;;;;;33.17;5.63;;;7.40;78.90;;;;;;4972135;28;20055;-87
2021/03/21 12:05:33;;;;;;;27.50;4.72;;;7.40;77.50;;;;;;4982551;28;20060;-88
2021/03/21 12:08:33;;;;;;;33.65;5.32;;;7.40;78.20;;;;;;4986009;28;20081;-89
2021/03/21 12:11:21;;;;;;;28.50;4.97;;;7.50;77.90;;;;;;4969988;28;20061;-88
2021/03/21 12:13:55;;;;;;;30.88;5.35;;;7.40;78.10;;;;;;4974698;28;20125;-88
2021/03/21 12:16:57;;;;;;;31.52;5.22;;;7.50;77.70;;;;;;4975942;28;20099;-86
2021/03/21 12:20:17;;;;;;;30.45;5.22;;;7.50;76.90;;;;;;4974788;28;20110;-89
2021/03/21 12:22:50;;;;;;;33.05;5.88;;;7.50;77.60;;;;;;4936189;28;20513;-89
2021/03/21 12:25:21;;;;;;;35.67;5.40;;;7.50;78.80;;;;;;4973099;28;20102;-89
2021/03/21 12:28:28;;;;;;;33.63;5.00;;;7.50;78.50;;;;;;4976586;28;20050;-88
2021/03/21 12:31:05;;;;;;;30.98;4.88;;;7.60;77.90;;;;;;4953595;28;20400;-90
2021/03/21 12:33:36;;;;;;;34.00;5.70;;;7.60;78.30;;;;;;4967720;28;20098;-87
2021/03/21 12:36:07;;;;;;;36.90;5.85;;;7.60;78.20;;;;;;4963621;28;20512;-85
2021/03/21 12:39:20;;;;;;;33.20;5.38;;;7.60;77.90;;;;;;4968950;28;20085;-85
2021/03/21 12:41:46;;;;;;;34.92;4.90;;;7.70;77.60;;;;;;4882453;29;20189;-83
2021/03/21 12:44:16;;;;;;;26.90;5.18;;;7.70;78.70;;;;;;4881163;29;20052;-84
2021/03/21 12:46:50;;;;;;;31.77;5.25;;;7.70;77.80;;;;;;4938783;28;20075;-85
2021/03/21 12:49:48;;;;;;;34.70;5.43;;;7.70;77.80;;;;;;4974258;28;20530;-86
2021/03/21 12:52:43;;;;;;;34.58;5.30;;;7.80;77.60;;;;;;4965089;28;20408;-85
2021/03/21 12:55:12;;;;;;;36.38;6.10;;;7.70;77.60;;;;;;4956374;28;20058;-85
2021/03/21 12:57:38;;;;;;;35.20;5.57;;;7.80;77.90;;;;;;4990349;28;20175;-85
2021/03/21 13:00:05;;;;;;;32.55;4.70;;;7.80;78.40;;;;;;4988966;28;20133;-86
2021/03/21 13:02:34;;;;;;;28.55;5.15;;;7.80;79.10;;;;;;4992066;28;20062;-84
2021/03/21 13:05:07;;;;;;;27.77;5.22;;;7.80;78.80;;;;;;4993205;28;20042;-84
2021/03/21 13:07:35;;;;;;;35.53;5.30;;;7.80;78.00;;;;;;4993843;28;20125;-86
2021/03/21 13:10:10;;;;;;;33.25;5.35;;;7.80;77.90;;;;;;4980704;28;20049;-88
2021/03/21 13:12:45;;;;;;;29.63;5.72;;;7.80;78.40;;;;;;4989761;28;20046;-84
2021/03/21 13:15:18;;;;;;;34.00;5.18;;;7.80;78.10;;;;;;4976117;28;20054;-89
2021/03/21 13:18:19;;;;;;;;;;;;;;;;;;;;;
2021/03/21 13:21:37;;;;;;;30.73;4.93;;;7.70;77.00;;;;;;5180568;22;20030;-87
2021/03/21 13:24:43;;;;;;;29.95;4.82;;;7.70;77.30;;;;;;5026163;28;20125;-86
2021/03/21 13:33:54;;;;;;;32.28;5.85;;;7.60;76.80;;;;;;5011118;22;20777;-86
2021/03/21 13:37:25;;;;;;;27.85;5.00;;;7.60;78.20;;;;;;4979178;28;20049;-86
2021/03/21 13:44:05;;;;;;;29.38;4.55;;;7.60;77.30;;;;;;4927780;29;20052;-86
2021/03/21 13:46:31;;;;;;;30.55;4.90;;;7.60;78.40;;;;;;4972247;28;20057;-87
2021/03/21 13:49:00;;;;;;;29.60;5.60;;;7.60;79.20;;;;;;4996434;28;20054;-86
2021/03/21 13:51:35;;;;;;;30.80;5.75;;;7.60;78.80;;;;;;5001447;28;20140;-87
2021/03/21 13:54:04;;;;;;;31.38;5.03;;;7.60;78.10;;;;;;5007844;28;20429;-87
2021/03/21 13:56:30;;;;;;;29.98;5.40;;;7.60;78.50;;;;;;5014235;28;20116;-87
2021/03/21 13:58:59;;;;;;;29.48;4.82;;;7.60;79.40;;;;;;5010197;28;20050;-88
2021/03/21 14:01:29;;;;;;;36.65;5.20;;;7.70;79.40;;;;;;5035809;22;20077;-88
2021/03/21 14:03:55;;;;;;;34.22;5.03;;;7.70;79.40;;;;;;5046437;28;20060;-88
2021/03/21 14:06:24;;;;;;;27.73;5.07;;;7.70;79.40;;;;;;5048602;28;20045;-88
2021/03/21 14:09:12;;;;;;;31.70;4.70;;;7.70;79.00;;;;;;5035007;28;20516;-89
2021/03/21 14:15:08;;;;;;;34.53;5.10;;;7.70;78.30;;;;;;5022137;22;20049;-91
2021/03/21 14:17:57;;;;;;;25.40;4.55;;;7.70;78.70;;;;;;5012586;28;20136;-88
2021/03/21 14:24:05;;;;;;;28.17;4.65;;;7.70;77.60;;;;;;5013093;28;20176;-89
2021/03/21 14:26:33;;;;;;;34.50;4.88;;;7.60;77.70;;;;;;5008227;28;20485;-88
2021/03/21 14:29:25;;;;;;;34.10;5.15;;;7.70;78.20;;;;;;5012709;28;20053;-89
2021/03/21 14:32:03;;;;;;;31.23;4.85;;;7.70;78.10;;;;;;5013776;28;20056;-90
2021/03/21 14:34:31;;;;;;;35.78;5.10;;;7.70;78.50;;;;;;5011816;28;20482;-91
2021/03/21 14:37:01;;;;;;;28.95;4.93;;;7.70;78.40;;;;;;5006424;28;20128;-89
2021/03/21 14:39:57;;;;;;;;;;;;;;;;;;;;;
2021/03/21 14:42:50;;;;;;;34.70;5.15;;;7.70;79.40;;;;;;4980027;28;20060;-93
2021/03/21 14:54:32;;;;;;;32.20;4.95;;;7.70;79.70;;;;;;5313363;23;20061;-92
2021/03/21 14:56:58;;;;;;;27.73;4.85;;;7.80;80.50;;;;;;5020760;28;20069;-87
2021/03/21 14:59:34;;;;;;;31.75;5.50;;;7.80;81.00;;;;;;5022251;28;20060;-87
2021/03/21 15:02:22;;;;;;;31.58;5.10;;;7.80;80.40;;;;;;5030789;28;20037;-90
2021/03/21 15:05:18;;;;;;;28.70;4.60;;;7.70;79.30;;;;;;5022141;28;20131;-86